sensor_id;sensor_type;location;lat;lon;timestamp;P1;durP1;ratioP1;P2;durP2;ratioP2
291;SDS011;23311;48.776;9.162;2023-03-08T00:01:01;6.93;;;5.03;;
291;SDS011;23311;48.776;9.162;2023-03-08T00:03:29;11.60;;;5.53;;
291;SDS011;23311;48.776;9.162;2023-03-08T00:05:57;8.30;;;6.00;;
291;SDS011;23311;48.776;9.162;2023-03-08T00:08:25;9.03;;;6.13;;
291;SDS011;23311;48.776;9.162;2023-03-08T00:10:53;8.27;;;5.90;;
291;SDS011;23311;48.776;9.162;2023-03-08T00:13:21;9.77;;;5.63;;
291;SDS011;23311;48.776;9.162;2023-03-08T00:15:51;7.90;;;5.90;;
291;SDS011;23311;48.776;9.162;2023-03-08T00:18:19;8.13;;;5.50;;
291;SDS011;23311;48.776;9.162;2023-03-08T00:20:56;7.87;;;5.27;;
291;SDS011;23311;48.776;9.162;2023-03-08T00:23:26;9.20;;;5.70;;
291;SDS011;23311;48.776;9.162;2023-03-08T00:25:54;10.67;;;6.10;;
291;SDS011;23311;48.776;9.162;2023-03-08T00:28:22;11.03;;;5.90;;
291;SDS011;23311;48.776;9.162;2023-03-08T00:30:55;10.60;;;6.43;;
291;SDS011;23311;48.776;9.162;2023-03-08T00:33:24;12.50;;;6.77;;
291;SDS011;23311;48.776;9.162;2023-03-08T00:35:55;11.53;;;6.57;;
291;SDS011;23311;48.776;9.162;2023-03-08T00:38:24;7.93;;;5.40;;
291;SDS011;23311;48.776;9.162;2023-03-08T00:40:53;8.80;;;5.50;;
291;SDS011;23311;48.776;9.162;2023-03-08T00:43:21;10.43;;;6.67;;
291;SDS011;23311;48.776;9.162;2023-03-08T00:45:49;8.20;;;5.83;;
291;SDS011;23311;48.776;9.162;2023-03-08T00:48:20;10.80;;;7.47;;
291;SDS011;23311;48.776;9.162;2023-03-08T00:50:51;9.27;;;5.60;;
291;SDS011;23311;48.776;9.162;2023-03-08T00:53:19;8.33;;;5.77;;
291;SDS011;23311;48.776;9.162;2023-03-08T00:55:47;10.27;;;6.90;;
291;SDS011;23311;48.776;9.162;2023-03-08T00:58:16;8.17;;;6.50;;
291;SDS011;23311;48.776;9.162;2023-03-08T01:00:45;7.67;;;5.67;;
291;SDS011;23311;48.776;9.162;2023-03-08T01:03:13;10.80;;;7.10;;
291;SDS011;23311;48.776;9.162;2023-03-08T01:05:43;9.67;;;6.93;;
291;SDS011;23311;48.776;9.162;2023-03-08T01:08:13;10.00;;;6.77;;
291;SDS011;23311;48.776;9.162;2023-03-08T01:10:45;11.13;;;7.03;;
291;SDS011;23311;48.776;9.162;2023-03-08T01:13:13;9.30;;;6.33;;
291;SDS011;23311;48.776;9.162;2023-03-08T01:15:41;7.47;;;6.90;;
291;SDS011;23311;48.776;9.162;2023-03-08T01:18:10;10.83;;;7.23;;
291;SDS011;23311;48.776;9.162;2023-03-08T01:20:38;9.77;;;7.33;;
291;SDS011;23311;48.776;9.162;2023-03-08T01:23:07;10.37;;;7.40;;
291;SDS011;23311;48.776;9.162;2023-03-08T01:25:36;8.70;;;6.50;;
291;SDS011;23311;48.776;9.162;2023-03-08T01:28:04;11.17;;;6.90;;
291;SDS011;23311;48.776;9.162;2023-03-08T01:30:32;15.20;;;8.67;;
291;SDS011;23311;48.776;9.162;2023-03-08T01:33:00;13.30;;;8.23;;
291;SDS011;23311;48.776;9.162;2023-03-08T01:35:28;10.90;;;6.90;;
291;SDS011;23311;48.776;9.162;2023-03-08T01:37:56;9.63;;;7.10;;
291;SDS011;23311;48.776;9.162;2023-03-08T01:40:25;10.77;;;7.40;;
291;SDS011;23311;48.776;9.162;2023-03-08T01:42:53;11.20;;;7.43;;
291;SDS011;23311;48.776;9.162;2023-03-08T01:48:29;15.13;;;8.53;;
291;SDS011;23311;48.776;9.162;2023-03-08T01:50:59;12.07;;;8.27;;
291;SDS011;23311;48.776;9.162;2023-03-08T01:53:30;12.90;;;7.10;;
291;SDS011;23311;48.776;9.162;2023-03-08T01:56:01;9.70;;;6.40;;
291;SDS011;23311;48.776;9.162;2023-03-08T01:58:29;10.50;;;6.70;;
291;SDS011;23311;48.776;9.162;2023-03-08T02:00:57;12.30;;;8.60;;
291;SDS011;23311;48.776;9.162;2023-03-08T02:03:25;11.20;;;8.27;;
291;SDS011;23311;48.776;9.162;2023-03-08T02:05:53;10.30;;;7.40;;
291;SDS011;23311;48.776;9.162;2023-03-08T02:08:22;9.43;;;6.80;;
291;SDS011;23311;48.776;9.162;2023-03-08T02:10:50;9.80;;;6.90;;
291;SDS011;23311;48.776;9.162;2023-03-08T02:13:20;12.17;;;7.50;;
291;SDS011;23311;48.776;9.162;2023-03-08T02:15:48;9.40;;;7.73;;
291;SDS011;23311;48.776;9.162;2023-03-08T02:18:17;11.90;;;9.00;;
291;SDS011;23311;48.776;9.162;2023-03-08T02:20:45;13.63;;;8.97;;
291;SDS011;23311;48.776;9.162;2023-03-08T02:23:15;12.53;;;8.90;;
291;SDS011;23311;48.776;9.162;2023-03-08T02:25:48;11.90;;;7.77;;
291;SDS011;23311;48.776;9.162;2023-03-08T02:28:18;10.40;;;7.83;;
291;SDS011;23311;48.776;9.162;2023-03-08T02:30:47;9.90;;;8.00;;
291;SDS011;23311;48.776;9.162;2023-03-08T02:33:16;8.93;;;7.23;;
291;SDS011;23311;48.776;9.162;2023-03-08T02:35:45;10.73;;;7.63;;
291;SDS011;23311;48.776;9.162;2023-03-08T02:38:15;11.63;;;7.20;;
291;SDS011;23311;48.776;9.162;2023-03-08T02:40:45;11.13;;;7.07;;
291;SDS011;23311;48.776;9.162;2023-03-08T02:43:16;11.90;;;7.53;;
291;SDS011;23311;48.776;9.162;2023-03-08T02:45:45;14.20;;;8.67;;
291;SDS011;23311;48.776;9.162;2023-03-08T02:48:13;12.43;;;8.23;;
291;SDS011;23311;48.776;9.162;2023-03-08T02:50:42;9.67;;;7.60;;
291;SDS011;23311;48.776;9.162;2023-03-08T02:53:10;12.40;;;7.63;;
291;SDS011;23311;48.776;9.162;2023-03-08T02:55:40;12.50;;;7.23;;
291;SDS011;23311;48.776;9.162;2023-03-08T02:58:08;11.77;;;8.40;;
291;SDS011;23311;48.776;9.162;2023-03-08T03:00:37;11.20;;;7.23;;
291;SDS011;23311;48.776;9.162;2023-03-08T03:03:05;11.00;;;7.13;;
291;SDS011;23311;48.776;9.162;2023-03-08T03:05:33;15.10;;;9.70;;
291;SDS011;23311;48.776;9.162;2023-03-08T03:08:01;12.83;;;7.10;;
291;SDS011;23311;48.776;9.162;2023-03-08T03:10:29;12.60;;;7.60;;
291;SDS011;23311;48.776;9.162;2023-03-08T03:12:59;10.30;;;7.60;;
291;SDS011;23311;48.776;9.162;2023-03-08T03:15:27;12.17;;;7.17;;
291;SDS011;23311;48.776;9.162;2023-03-08T03:17:55;10.30;;;6.40;;
291;SDS011;23311;48.776;9.162;2023-03-08T03:20:23;13.00;;;7.70;;
291;SDS011;23311;48.776;9.162;2023-03-08T03:22:51;11.77;;;7.80;;
291;SDS011;23311;48.776;9.162;2023-03-08T03:25:19;10.67;;;7.20;;
291;SDS011;23311;48.776;9.162;2023-03-08T03:27:47;9.17;;;7.10;;
291;SDS011;23311;48.776;9.162;2023-03-08T03:30:17;11.23;;;8.03;;
291;SDS011;23311;48.776;9.162;2023-03-08T03:32:45;9.20;;;6.63;;
291;SDS011;23311;48.776;9.162;2023-03-08T03:35:13;12.70;;;7.10;;
291;SDS011;23311;48.776;9.162;2023-03-08T03:37:41;9.30;;;6.73;;
291;SDS011;23311;48.776;9.162;2023-03-08T03:40:10;9.50;;;6.70;;
291;SDS011;23311;48.776;9.162;2023-03-08T03:42:40;11.47;;;7.40;;
291;SDS011;23311;48.776;9.162;2023-03-08T03:45:08;10.33;;;6.50;;
291;SDS011;23311;48.776;9.162;2023-03-08T03:47:38;13.47;;;7.53;;
291;SDS011;23311;48.776;9.162;2023-03-08T03:50:07;11.30;;;6.70;;
291;SDS011;23311;48.776;9.162;2023-03-08T03:52:36;13.30;;;7.13;;
291;SDS011;23311;48.776;9.162;2023-03-08T03:55:04;9.73;;;6.40;;
291;SDS011;23311;48.776;9.162;2023-03-08T03:57:33;9.10;;;6.67;;
291;SDS011;23311;48.776;9.162;2023-03-08T04:00:02;10.83;;;6.83;;
291;SDS011;23311;48.776;9.162;2023-03-08T04:02:32;9.47;;;6.67;;
291;SDS011;23311;48.776;9.162;2023-03-08T04:05:02;9.77;;;7.50;;
291;SDS011;23311;48.776;9.162;2023-03-08T04:07:31;11.60;;;7.67;;
291;SDS011;23311;48.776;9.162;2023-03-08T04:09:59;13.87;;;7.47;;
291;SDS011;23311;48.776;9.162;2023-03-08T04:12:27;11.33;;;7.63;;
291;SDS011;23311;48.776;9.162;2023-03-08T04:14:55;9.73;;;6.70;;
291;SDS011;23311;48.776;9.162;2023-03-08T04:17:23;9.43;;;6.37;;
291;SDS011;23311;48.776;9.162;2023-03-08T04:19:51;8.20;;;7.20;;
291;SDS011;23311;48.776;9.162;2023-03-08T04:22:20;9.43;;;7.10;;
291;SDS011;23311;48.776;9.162;2023-03-08T04:24:48;9.23;;;7.40;;
291;SDS011;23311;48.776;9.162;2023-03-08T04:27:16;11.27;;;7.50;;
291;SDS011;23311;48.776;9.162;2023-03-08T04:29:44;11.67;;;7.50;;
291;SDS011;23311;48.776;9.162;2023-03-08T04:32:12;12.00;;;6.90;;
291;SDS011;23311;48.776;9.162;2023-03-08T04:34:40;11.23;;;6.40;;
291;SDS011;23311;48.776;9.162;2023-03-08T04:37:09;10.97;;;7.30;;
291;SDS011;23311;48.776;9.162;2023-03-08T04:39:39;11.73;;;7.30;;
291;SDS011;23311;48.776;9.162;2023-03-08T04:42:07;10.83;;;7.40;;
291;SDS011;23311;48.776;9.162;2023-03-08T04:44:35;8.83;;;6.10;;
291;SDS011;23311;48.776;9.162;2023-03-08T04:47:03;10.87;;;6.90;;
291;SDS011;23311;48.776;9.162;2023-03-08T04:49:31;9.90;;;6.43;;
291;SDS011;23311;48.776;9.162;2023-03-08T04:51:59;10.37;;;6.80;;
291;SDS011;23311;48.776;9.162;2023-03-08T04:54:27;11.13;;;8.00;;
291;SDS011;23311;48.776;9.162;2023-03-08T04:56:57;12.10;;;7.40;;
291;SDS011;23311;48.776;9.162;2023-03-08T04:59:25;10.20;;;7.43;;
291;SDS011;23311;48.776;9.162;2023-03-08T05:01:56;12.60;;;7.03;;
291;SDS011;23311;48.776;9.162;2023-03-08T05:04:24;9.80;;;7.50;;
291;SDS011;23311;48.776;9.162;2023-03-08T05:06:57;9.23;;;7.17;;
291;SDS011;23311;48.776;9.162;2023-03-08T05:09:55;9.83;;;6.97;;
291;SDS011;23311;48.776;9.162;2023-03-08T05:12:28;10.80;;;7.43;;
291;SDS011;23311;48.776;9.162;2023-03-08T05:14:56;11.70;;;7.20;;
291;SDS011;23311;48.776;9.162;2023-03-08T05:17:24;9.87;;;7.20;;
291;SDS011;23311;48.776;9.162;2023-03-08T05:19:52;10.60;;;7.93;;
291;SDS011;23311;48.776;9.162;2023-03-08T05:22:20;13.87;;;8.47;;
291;SDS011;23311;48.776;9.162;2023-03-08T05:24:48;8.63;;;6.43;;
291;SDS011;23311;48.776;9.162;2023-03-08T05:27:16;10.03;;;6.70;;
291;SDS011;23311;48.776;9.162;2023-03-08T05:29:45;10.53;;;6.90;;
291;SDS011;23311;48.776;9.162;2023-03-08T05:32:14;11.93;;;7.53;;
291;SDS011;23311;48.776;9.162;2023-03-08T05:34:42;10.00;;;7.50;;
291;SDS011;23311;48.776;9.162;2023-03-08T05:37:10;11.40;;;7.73;;
291;SDS011;23311;48.776;9.162;2023-03-08T05:39:38;16.00;;;9.47;;
291;SDS011;23311;48.776;9.162;2023-03-08T05:42:06;11.47;;;7.90;;
291;SDS011;23311;48.776;9.162;2023-03-08T05:44:34;12.03;;;8.30;;
291;SDS011;23311;48.776;9.162;2023-03-08T05:47:04;13.77;;;8.30;;
291;SDS011;23311;48.776;9.162;2023-03-08T05:49:32;13.50;;;7.77;;
291;SDS011;23311;48.776;9.162;2023-03-08T05:52:00;13.93;;;8.53;;
291;SDS011;23311;48.776;9.162;2023-03-08T05:54:28;10.57;;;7.97;;
291;SDS011;23311;48.776;9.162;2023-03-08T05:56:56;11.87;;;8.27;;
291;SDS011;23311;48.776;9.162;2023-03-08T05:59:24;9.67;;;7.13;;
291;SDS011;23311;48.776;9.162;2023-03-08T06:01:53;11.37;;;7.00;;
291;SDS011;23311;48.776;9.162;2023-03-08T06:04:22;13.60;;;8.47;;
291;SDS011;23311;48.776;9.162;2023-03-08T06:06:50;14.60;;;8.80;;
291;SDS011;23311;48.776;9.162;2023-03-08T06:09:18;10.90;;;8.03;;
291;SDS011;23311;48.776;9.162;2023-03-08T06:11:46;12.40;;;8.27;;
291;SDS011;23311;48.776;9.162;2023-03-08T06:14:14;10.93;;;8.17;;
291;SDS011;23311;48.776;9.162;2023-03-08T06:16:42;12.77;;;8.13;;
291;SDS011;23311;48.776;9.162;2023-03-08T06:19:13;10.90;;;8.57;;
291;SDS011;23311;48.776;9.162;2023-03-08T06:21:43;9.83;;;6.77;;
291;SDS011;23311;48.776;9.162;2023-03-08T06:24:11;12.43;;;8.53;;
291;SDS011;23311;48.776;9.162;2023-03-08T06:26:39;13.20;;;9.10;;
291;SDS011;23311;48.776;9.162;2023-03-08T06:29:07;12.43;;;8.60;;
291;SDS011;23311;48.776;9.162;2023-03-08T06:31:35;11.53;;;8.30;;
291;SDS011;23311;48.776;9.162;2023-03-08T06:34:03;11.40;;;8.53;;
291;SDS011;23311;48.776;9.162;2023-03-08T06:36:31;15.53;;;9.23;;
291;SDS011;23311;48.776;9.162;2023-03-08T06:39:01;13.90;;;8.93;;
291;SDS011;23311;48.776;9.162;2023-03-08T06:41:29;13.40;;;9.37;;
291;SDS011;23311;48.776;9.162;2023-03-08T06:43:57;14.80;;;10.00;;
291;SDS011;23311;48.776;9.162;2023-03-08T06:46:25;12.97;;;9.43;;
291;SDS011;23311;48.776;9.162;2023-03-08T06:48:54;13.53;;;8.90;;
291;SDS011;23311;48.776;9.162;2023-03-08T06:51:22;14.47;;;9.90;;
291;SDS011;23311;48.776;9.162;2023-03-08T06:53:50;13.03;;;9.60;;
291;SDS011;23311;48.776;9.162;2023-03-08T06:56:19;15.23;;;10.00;;
291;SDS011;23311;48.776;9.162;2023-03-08T06:58:47;15.47;;;9.90;;
291;SDS011;23311;48.776;9.162;2023-03-08T07:01:15;17.87;;;10.27;;
291;SDS011;23311;48.776;9.162;2023-03-08T07:03:44;16.93;;;10.33;;
291;SDS011;23311;48.776;9.162;2023-03-08T07:06:14;20.63;;;10.73;;
291;SDS011;23311;48.776;9.162;2023-03-08T07:08:42;12.40;;;9.67;;
291;SDS011;23311;48.776;9.162;2023-03-08T07:11:10;15.80;;;11.00;;
291;SDS011;23311;48.776;9.162;2023-03-08T07:13:40;15.87;;;10.00;;
291;SDS011;23311;48.776;9.162;2023-03-08T07:16:09;14.17;;;9.97;;
291;SDS011;23311;48.776;9.162;2023-03-08T07:18:39;10.60;;;8.73;;
291;SDS011;23311;48.776;9.162;2023-03-08T07:21:08;13.53;;;9.10;;
291;SDS011;23311;48.776;9.162;2023-03-08T07:23:36;17.70;;;10.67;;
291;SDS011;23311;48.776;9.162;2023-03-08T07:26:05;13.00;;;8.80;;
291;SDS011;23311;48.776;9.162;2023-03-08T07:28:33;14.13;;;9.20;;
291;SDS011;23311;48.776;9.162;2023-03-08T07:31:03;14.07;;;9.67;;
291;SDS011;23311;48.776;9.162;2023-03-08T07:33:31;17.40;;;9.73;;
291;SDS011;23311;48.776;9.162;2023-03-08T07:35:59;16.57;;;10.07;;
291;SDS011;23311;48.776;9.162;2023-03-08T07:38:28;13.53;;;9.10;;
291;SDS011;23311;48.776;9.162;2023-03-08T07:40:57;12.50;;;9.17;;
291;SDS011;23311;48.776;9.162;2023-03-08T07:43:26;15.50;;;9.43;;
291;SDS011;23311;48.776;9.162;2023-03-08T07:45:54;17.50;;;10.80;;
291;SDS011;23311;48.776;9.162;2023-03-08T07:48:27;15.27;;;9.77;;
291;SDS011;23311;48.776;9.162;2023-03-08T07:50:58;16.83;;;10.73;;
291;SDS011;23311;48.776;9.162;2023-03-08T07:53:28;14.80;;;9.90;;
291;SDS011;23311;48.776;9.162;2023-03-08T07:55:57;18.73;;;10.37;;
291;SDS011;23311;48.776;9.162;2023-03-08T07:58:26;11.30;;;8.83;;
291;SDS011;23311;48.776;9.162;2023-03-08T08:00:54;12.57;;;9.77;;
291;SDS011;23311;48.776;9.162;2023-03-08T08:03:22;14.77;;;10.17;;
291;SDS011;23311;48.776;9.162;2023-03-08T08:05:52;11.93;;;9.50;;
291;SDS011;23311;48.776;9.162;2023-03-08T08:08:20;13.63;;;9.67;;
291;SDS011;23311;48.776;9.162;2023-03-08T08:10:48;12.27;;;8.87;;
291;SDS011;23311;48.776;9.162;2023-03-08T08:13:16;12.57;;;9.93;;
291;SDS011;23311;48.776;9.162;2023-03-08T08:15:44;12.63;;;8.77;;
291;SDS011;23311;48.776;9.162;2023-03-08T08:18:12;14.40;;;8.97;;
291;SDS011;23311;48.776;9.162;2023-03-08T08:20:40;11.77;;;8.70;;
291;SDS011;23311;48.776;9.162;2023-03-08T08:23:11;12.57;;;8.27;;
291;SDS011;23311;48.776;9.162;2023-03-08T08:25:39;11.20;;;7.73;;
291;SDS011;23311;48.776;9.162;2023-03-08T08:28:07;11.93;;;8.53;;
291;SDS011;23311;48.776;9.162;2023-03-08T08:30:35;10.77;;;7.97;;
291;SDS011;23311;48.776;9.162;2023-03-08T08:33:03;11.47;;;8.03;;
291;SDS011;23311;48.776;9.162;2023-03-08T08:35:31;14.40;;;9.87;;
291;SDS011;23311;48.776;9.162;2023-03-08T08:38:08;10.67;;;8.50;;
291;SDS011;23311;48.776;9.162;2023-03-08T08:40:38;11.10;;;8.53;;
291;SDS011;23311;48.776;9.162;2023-03-08T08:43:06;12.73;;;8.17;;
291;SDS011;23311;48.776;9.162;2023-03-08T08:45:34;15.30;;;9.13;;
291;SDS011;23311;48.776;9.162;2023-03-08T08:48:02;9.87;;;7.40;;
291;SDS011;23311;48.776;9.162;2023-03-08T08:50:31;10.50;;;7.90;;
291;SDS011;23311;48.776;9.162;2023-03-08T08:52:59;11.13;;;8.00;;
291;SDS011;23311;48.776;9.162;2023-03-08T08:55:28;12.30;;;8.47;;
291;SDS011;23311;48.776;9.162;2023-03-08T08:57:56;15.23;;;9.23;;
291;SDS011;23311;48.776;9.162;2023-03-08T09:00:25;10.90;;;7.97;;
291;SDS011;23311;48.776;9.162;2023-03-08T09:02:53;13.90;;;8.57;;
291;SDS011;23311;48.776;9.162;2023-03-08T09:05:21;13.50;;;9.17;;
291;SDS011;23311;48.776;9.162;2023-03-08T09:07:49;13.63;;;9.20;;
291;SDS011;23311;48.776;9.162;2023-03-08T09:10:20;13.97;;;10.30;;
291;SDS011;23311;48.776;9.162;2023-03-08T09:12:49;12.53;;;8.20;;
291;SDS011;23311;48.776;9.162;2023-03-08T09:15:17;14.40;;;9.30;;
291;SDS011;23311;48.776;9.162;2023-03-08T09:17:47;13.93;;;10.00;;
291;SDS011;23311;48.776;9.162;2023-03-08T09:20:15;13.93;;;9.30;;
291;SDS011;23311;48.776;9.162;2023-03-08T09:22:46;12.00;;;9.10;;
291;SDS011;23311;48.776;9.162;2023-03-08T09:25:14;14.33;;;9.80;;
291;SDS011;23311;48.776;9.162;2023-03-08T09:27:44;9.47;;;8.20;;
291;SDS011;23311;48.776;9.162;2023-03-08T09:30:16;11.43;;;8.33;;
291;SDS011;23311;48.776;9.162;2023-03-08T09:32:44;12.40;;;8.97;;
291;SDS011;23311;48.776;9.162;2023-03-08T09:35:12;11.80;;;8.63;;
291;SDS011;23311;48.776;9.162;2023-03-08T09:37:41;11.87;;;8.90;;
291;SDS011;23311;48.776;9.162;2023-03-08T09:40:13;13.60;;;9.23;;
291;SDS011;23311;48.776;9.162;2023-03-08T09:42:46;14.00;;;9.30;;
291;SDS011;23311;48.776;9.162;2023-03-08T09:45:20;12.87;;;9.90;;
291;SDS011;23311;48.776;9.162;2023-03-08T09:47:52;18.03;;;9.83;;
291;SDS011;23311;48.776;9.162;2023-03-08T09:50:32;12.30;;;9.53;;
291;SDS011;23311;48.776;9.162;2023-03-08T09:53:09;13.70;;;9.80;;
291;SDS011;23311;48.776;9.162;2023-03-08T09:55:43;12.70;;;9.27;;
291;SDS011;23311;48.776;9.162;2023-03-08T09:58:16;11.50;;;9.10;;
291;SDS011;23311;48.776;9.162;2023-03-08T10:00:52;14.20;;;9.70;;
291;SDS011;23311;48.776;9.162;2023-03-08T10:03:36;11.80;;;8.97;;
291;SDS011;23311;48.776;9.162;2023-03-08T10:06:17;16.17;;;8.80;;
291;SDS011;23311;48.776;9.162;2023-03-08T10:08:51;13.10;;;9.40;;
291;SDS011;23311;48.776;9.162;2023-03-08T10:11:24;11.60;;;7.60;;
291;SDS011;23311;48.776;9.162;2023-03-08T10:13:59;12.00;;;7.77;;
291;SDS011;23311;48.776;9.162;2023-03-08T10:16:35;10.97;;;6.73;;
291;SDS011;23311;48.776;9.162;2023-03-08T10:19:14;8.73;;;5.93;;
291;SDS011;23311;48.776;9.162;2023-03-08T10:21:46;10.20;;;6.80;;
291;SDS011;23311;48.776;9.162;2023-03-08T10:24:16;10.73;;;6.83;;
291;SDS011;23311;48.776;9.162;2023-03-08T10:26:52;9.10;;;5.93;;
291;SDS011;23311;48.776;9.162;2023-03-08T10:29:21;7.43;;;5.10;;
291;SDS011;23311;48.776;9.162;2023-03-08T10:31:50;6.87;;;5.27;;
291;SDS011;23311;48.776;9.162;2023-03-08T10:34:19;8.10;;;5.37;;
291;SDS011;23311;48.776;9.162;2023-03-08T10:36:51;6.63;;;4.97;;
291;SDS011;23311;48.776;9.162;2023-03-08T10:39:23;6.03;;;5.00;;
291;SDS011;23311;48.776;9.162;2023-03-08T10:41:52;6.67;;;5.20;;
291;SDS011;23311;48.776;9.162;2023-03-08T10:44:30;5.80;;;4.30;;
291;SDS011;23311;48.776;9.162;2023-03-08T10:47:15;5.83;;;3.80;;
291;SDS011;23311;48.776;9.162;2023-03-08T10:49:45;5.13;;;3.57;;
291;SDS011;23311;48.776;9.162;2023-03-08T10:52:19;5.17;;;3.80;;
291;SDS011;23311;48.776;9.162;2023-03-08T10:54:58;7.03;;;4.27;;
291;SDS011;23311;48.776;9.162;2023-03-08T10:57:27;6.00;;;3.10;;
291;SDS011;23311;48.776;9.162;2023-03-08T10:59:57;4.00;;;2.73;;
291;SDS011;23311;48.776;9.162;2023-03-08T11:02:32;4.40;;;3.47;;
291;SDS011;23311;48.776;9.162;2023-03-08T11:05:00;3.93;;;2.60;;
291;SDS011;23311;48.776;9.162;2023-03-08T11:07:29;3.47;;;2.17;;
291;SDS011;23311;48.776;9.162;2023-03-08T11:10:03;2.60;;;1.80;;
291;SDS011;23311;48.776;9.162;2023-03-08T11:12:41;2.73;;;1.77;;
291;SDS011;23311;48.776;9.162;2023-03-08T11:15:11;5.03;;;1.70;;
291;SDS011;23311;48.776;9.162;2023-03-08T11:17:43;5.23;;;1.80;;
291;SDS011;23311;48.776;9.162;2023-03-08T11:20:21;2.43;;;1.00;;
291;SDS011;23311;48.776;9.162;2023-03-08T11:22:57;2.37;;;1.40;;
291;SDS011;23311;48.776;9.162;2023-03-08T11:25:33;2.63;;;1.37;;
291;SDS011;23311;48.776;9.162;2023-03-08T11:28:13;2.00;;;1.10;;
291;SDS011;23311;48.776;9.162;2023-03-08T11:31:23;2.83;;;1.10;;
291;SDS011;23311;48.776;9.162;2023-03-08T11:34:04;3.00;;;1.30;;
291;SDS011;23311;48.776;9.162;2023-03-08T11:36:55;1.60;;;0.90;;
291;SDS011;23311;48.776;9.162;2023-03-08T11:39:29;1.40;;;1.00;;
291;SDS011;23311;48.776;9.162;2023-03-08T11:42:02;1.53;;;0.90;;
291;SDS011;23311;48.776;9.162;2023-03-08T11:44:41;2.27;;;1.30;;
291;SDS011;23311;48.776;9.162;2023-03-08T11:47:38;2.00;;;1.20;;
291;SDS011;23311;48.776;9.162;2023-03-08T11:50:25;2.00;;;1.00;;
291;SDS011;23311;48.776;9.162;2023-03-08T11:52:59;1.40;;;0.80;;
291;SDS011;23311;48.776;9.162;2023-03-08T11:55:44;1.70;;;0.73;;
291;SDS011;23311;48.776;9.162;2023-03-08T11:58:21;2.10;;;1.23;;
291;SDS011;23311;48.776;9.162;2023-03-08T12:00:55;2.33;;;0.90;;
291;SDS011;23311;48.776;9.162;2023-03-08T12:03:30;2.20;;;1.50;;
291;SDS011;23311;48.776;9.162;2023-03-08T12:06:08;4.00;;;0.87;;
291;SDS011;23311;48.776;9.162;2023-03-08T12:08:53;1.70;;;1.10;;
291;SDS011;23311;48.776;9.162;2023-03-08T12:11:27;3.17;;;1.13;;
291;SDS011;23311;48.776;9.162;2023-03-08T12:14:00;2.97;;;1.20;;
291;SDS011;23311;48.776;9.162;2023-03-08T12:16:31;2.50;;;1.00;;
291;SDS011;23311;48.776;9.162;2023-03-08T12:19:09;1.77;;;1.00;;
291;SDS011;23311;48.776;9.162;2023-03-08T12:21:46;2.37;;;1.50;;
291;SDS011;23311;48.776;9.162;2023-03-08T12:24:23;1.70;;;0.90;;
291;SDS011;23311;48.776;9.162;2023-03-08T12:27:03;2.67;;;1.10;;
291;SDS011;23311;48.776;9.162;2023-03-08T12:29:36;1.67;;;1.00;;
291;SDS011;23311;48.776;9.162;2023-03-08T12:32:07;2.30;;;0.90;;
291;SDS011;23311;48.776;9.162;2023-03-08T12:34:39;1.60;;;1.00;;
291;SDS011;23311;48.776;9.162;2023-03-08T12:37:21;4.00;;;1.00;;
291;SDS011;23311;48.776;9.162;2023-03-08T12:39:55;3.00;;;0.80;;
291;SDS011;23311;48.776;9.162;2023-03-08T12:42:28;2.40;;;0.87;;
291;SDS011;23311;48.776;9.162;2023-03-08T12:47:57;1.60;;;0.87;;
291;SDS011;23311;48.776;9.162;2023-03-08T12:50:35;1.90;;;0.87;;
291;SDS011;23311;48.776;9.162;2023-03-08T12:53:20;1.77;;;1.00;;
291;SDS011;23311;48.776;9.162;2023-03-08T12:56:00;1.90;;;0.90;;
291;SDS011;23311;48.776;9.162;2023-03-08T12:58:31;1.67;;;0.87;;
291;SDS011;23311;48.776;9.162;2023-03-08T13:01:04;2.70;;;0.97;;
291;SDS011;23311;48.776;9.162;2023-03-08T13:03:37;1.60;;;0.97;;
291;SDS011;23311;48.776;9.162;2023-03-08T13:06:29;3.03;;;1.27;;
291;SDS011;23311;48.776;9.162;2023-03-08T13:09:14;1.87;;;0.90;;
291;SDS011;23311;48.776;9.162;2023-03-08T13:11:49;1.73;;;0.80;;
291;SDS011;23311;48.776;9.162;2023-03-08T13:14:24;1.97;;;0.80;;
291;SDS011;23311;48.776;9.162;2023-03-08T13:16:53;1.60;;;0.80;;
291;SDS011;23311;48.776;9.162;2023-03-08T13:19:24;2.03;;;0.80;;
291;SDS011;23311;48.776;9.162;2023-03-08T13:21:57;1.50;;;1.00;;
291;SDS011;23311;48.776;9.162;2023-03-08T13:24:35;2.07;;;0.80;;
291;SDS011;23311;48.776;9.162;2023-03-08T13:27:19;1.83;;;0.90;;
291;SDS011;23311;48.776;9.162;2023-03-08T13:29:57;3.90;;;0.70;;
291;SDS011;23311;48.776;9.162;2023-03-08T13:32:29;2.40;;;0.80;;
291;SDS011;23311;48.776;9.162;2023-03-08T13:34:59;3.10;;;0.80;;
291;SDS011;23311;48.776;9.162;2023-03-08T13:37:28;1.10;;;0.70;;
291;SDS011;23311;48.776;9.162;2023-03-08T13:39:58;1.83;;;0.80;;
291;SDS011;23311;48.776;9.162;2023-03-08T13:42:27;1.60;;;0.90;;
291;SDS011;23311;48.776;9.162;2023-03-08T13:45:05;3.30;;;0.87;;
291;SDS011;23311;48.776;9.162;2023-03-08T13:47:36;2.33;;;1.53;;
291;SDS011;23311;48.776;9.162;2023-03-08T13:50:06;1.30;;;0.70;;
291;SDS011;23311;48.776;9.162;2023-03-08T13:52:43;1.40;;;0.70;;
291;SDS011;23311;48.776;9.162;2023-03-08T13:55:18;1.60;;;0.80;;
291;SDS011;23311;48.776;9.162;2023-03-08T13:57:50;2.10;;;0.90;;
291;SDS011;23311;48.776;9.162;2023-03-08T14:00:25;2.43;;;1.00;;
291;SDS011;23311;48.776;9.162;2023-03-08T14:02:55;1.53;;;0.83;;
291;SDS011;23311;48.776;9.162;2023-03-08T14:05:25;2.87;;;0.80;;
291;SDS011;23311;48.776;9.162;2023-03-08T14:07:55;1.77;;;0.70;;
291;SDS011;23311;48.776;9.162;2023-03-08T14:10:28;1.30;;;0.63;;
291;SDS011;23311;48.776;9.162;2023-03-08T14:13:01;1.63;;;0.77;;
291;SDS011;23311;48.776;9.162;2023-03-08T14:15:29;1.43;;;0.80;;
291;SDS011;23311;48.776;9.162;2023-03-08T14:18:00;1.40;;;0.70;;
291;SDS011;23311;48.776;9.162;2023-03-08T14:20:30;2.97;;;1.00;;
291;SDS011;23311;48.776;9.162;2023-03-08T14:22:58;1.93;;;0.70;;
291;SDS011;23311;48.776;9.162;2023-03-08T14:25:28;2.13;;;0.70;;
291;SDS011;23311;48.776;9.162;2023-03-08T14:27:57;1.90;;;0.60;;
291;SDS011;23311;48.776;9.162;2023-03-08T14:30:26;3.73;;;0.67;;
291;SDS011;23311;48.776;9.162;2023-03-08T14:33:00;1.93;;;0.80;;
291;SDS011;23311;48.776;9.162;2023-03-08T14:35:33;1.43;;;0.50;;
291;SDS011;23311;48.776;9.162;2023-03-08T14:38:02;1.43;;;0.40;;
291;SDS011;23311;48.776;9.162;2023-03-08T14:40:45;2.07;;;0.67;;
291;SDS011;23311;48.776;9.162;2023-03-08T14:43:16;1.00;;;0.40;;
291;SDS011;23311;48.776;9.162;2023-03-08T14:45:50;1.93;;;1.03;;
291;SDS011;23311;48.776;9.162;2023-03-08T14:48:21;3.27;;;0.50;;
291;SDS011;23311;48.776;9.162;2023-03-08T14:50:52;1.30;;;0.50;;
291;SDS011;23311;48.776;9.162;2023-03-08T14:53:23;1.27;;;0.50;;
291;SDS011;23311;48.776;9.162;2023-03-08T14:55:56;1.47;;;0.47;;
291;SDS011;23311;48.776;9.162;2023-03-08T14:58:26;2.80;;;0.50;;
291;SDS011;23311;48.776;9.162;2023-03-08T15:00:56;1.20;;;0.43;;
291;SDS011;23311;48.776;9.162;2023-03-08T15:03:26;1.40;;;0.67;;
291;SDS011;23311;48.776;9.162;2023-03-08T15:05:55;1.50;;;0.60;;
291;SDS011;23311;48.776;9.162;2023-03-08T15:08:24;2.47;;;0.50;;
291;SDS011;23311;48.776;9.162;2023-03-08T15:10:52;1.43;;;0.63;;
291;SDS011;23311;48.776;9.162;2023-03-08T15:13:22;1.10;;;0.50;;
291;SDS011;23311;48.776;9.162;2023-03-08T15:15:50;2.00;;;0.90;;
291;SDS011;23311;48.776;9.162;2023-03-08T15:18:18;2.20;;;1.00;;
291;SDS011;23311;48.776;9.162;2023-03-08T15:20:47;1.60;;;0.87;;
291;SDS011;23311;48.776;9.162;2023-03-08T15:23:18;1.67;;;0.73;;
291;SDS011;23311;48.776;9.162;2023-03-08T15:25:48;1.80;;;1.07;;
291;SDS011;23311;48.776;9.162;2023-03-08T15:28:17;0.90;;;0.43;;
291;SDS011;23311;48.776;9.162;2023-03-08T15:30:48;1.40;;;0.50;;
291;SDS011;23311;48.776;9.162;2023-03-08T15:33:18;1.37;;;0.63;;
291;SDS011;23311;48.776;9.162;2023-03-08T15:35:46;1.10;;;0.60;;